Time;durP1;ratioP1;P1;durP2;ratioP2;P2;SDS_P1;SDS_P2;PMS_P1;PMS_P2;Temp;Humidity;BMP_temperature;BMP_pressure;BME280_temperature;BME280_humidity;BME280_pressure;Samples;Min_cycle;Max_cycle;Signal;HPM_P1;HPM_P2
2022/04/05 00:01:28;;;;;;;;;;;;;;;1.74;90.93;99451.69;5057574;28;20019;-85
2022/04/05 00:03:56;;;;;;;;;;;;;;;1.73;90.95;99455.63;5072121;28;19921;-81
2022/04/05 00:06:22;;;;;;;;;;;;;;;1.78;91.05;99447.00;5073323;28;19994;-85
2022/04/05 00:08:47;;;;;;;;;;;;;;;1.86;91.24;99442.34;5074216;28;19927;-85
2022/04/05 00:11:13;;;;;;;;;;;;;;;1.88;91.05;99438.03;5069002;28;19921;-85
2022/04/05 00:13:38;;;;;;;;;;;;;;;1.93;90.38;99436.84;5072468;28;20444;-84
2022/04/05 00:16:04;;;;;;;;;;;;;;;2.00;90.95;99433.31;5070789;28;19920;-85
2022/04/05 00:18:30;;;;;;;;;;;;;;;2.05;90.18;99421.97;5070280;28;20418;-85
2022/04/05 00:20:55;;;;;;;;;;;;;;;2.12;89.53;99428.19;5035977;28;19920;-85
2022/04/05 00:23:21;;;;;;;;;;;;;;;2.18;90.01;99426.63;5039616;28;19928;-85
2022/04/05 00:25:46;;;;;;;;;;;;;;;2.25;89.92;99423.09;5073849;28;19923;-84
2022/04/05 00:28:11;;;;;;;;;;;;;;;2.26;89.40;99416.44;5056410;28;20007;-85
2022/04/05 00:30:37;;;;;;;;;;;;;;;2.28;89.64;99414.06;5074725;28;19931;-85
2022/04/05 00:33:02;;;;;;;;;;;;;;;2.32;89.45;99414.84;5085176;28;19927;-85
2022/04/05 00:35:28;;;;;;;;;;;;;;;2.38;89.13;99424.22;5060592;28;19942;-85
2022/04/05 00:37:53;;;;;;;;;;;;;;;2.43;88.68;99412.84;5073092;28;20266;-85
2022/04/05 00:40:20;;;;;;;;;;;;;;;2.43;88.41;99421.06;5072623;28;20038;-85
2022/04/05 00:42:45;;;;;;;;;;;;;;;2.46;89.09;99411.28;5073597;28;20294;-85
2022/04/05 00:45:11;;;;;;;;;;;;;;;2.48;88.72;99412.44;5071591;28;19920;-85
2022/04/05 00:47:36;;;;;;;;;;;;;;;2.52;88.58;99420.63;5073408;28;20338;-85
2022/04/05 00:50:03;;;;;;;;;;;;;;;2.52;88.51;99404.97;5057226;28;19959;-84
2022/04/05 00:52:28;;;;;;;;;;;;;;;2.54;88.27;99424.53;5053341;28;20373;-85
2022/04/05 00:54:54;;;;;;;;;;;;;;;2.56;88.10;99415.91;5067506;28;19982;-85
2022/04/05 00:57:21;;;;;;;;;;;;;;;2.58;87.97;99416.31;5055147;28;19920;-85
2022/04/05 00:59:47;;;;;;;;;;;;;;;2.54;88.88;99410.06;5072389;28;19990;-85
2022/04/05 01:02:14;;;;;;;;;;;;;;;2.54;88.37;99405.38;5336865;22;20134;-80
2022/04/05 01:04:40;;;;;;;;;;;;;;;2.59;88.67;99406.94;5075617;28;19920;-80
2022/04/05 01:07:06;;;;;;;;;;;;;;;2.58;88.95;99397.94;5054764;28;19974;-79
2022/04/05 01:09:32;;;;;;;;;;;;;;;2.58;87.85;99395.19;5062404;28;19924;-80
2022/04/05 01:11:57;;;;;;;;;;;;;;;2.62;87.74;99382.25;5072729;28;19971;-80
2022/04/05 01:14:23;;;;;;;;;;;;;;;2.65;87.70;99395.16;5071066;28;20400;-79
2022/04/05 01:16:48;;;;;;;;;;;;;;;2.65;87.78;99384.19;5071326;28;19927;-80
2022/04/05 01:19:13;;;;;;;;;;;;;;;2.66;88.07;99385.75;5069757;28;20016;-79
2022/04/05 01:21:39;;;;;;;;;;;;;;;2.67;87.51;99387.31;5053074;28;19931;-80
2022/04/05 01:24:08;;;;;;;;;;;;;;;2.68;87.76;99388.09;5055404;28;19920;-79
2022/04/05 01:26:43;;;;;;;;;;;;;;;2.65;87.65;99386.16;5072918;28;19917;-80
2022/04/05 01:29:09;;;;;;;;;;;;;;;2.67;87.20;99381.81;5070709;28;20304;-79
2022/04/05 01:31:41;;;;;;;;;;;;;;;2.66;88.01;99380.28;5071002;28;19917;-80
2022/04/05 01:34:07;;;;;;;;;;;;;;;2.63;88.80;99375.59;5072172;28;20296;-80
2022/04/05 01:36:32;;;;;;;;;;;;;;;2.61;88.34;99377.97;5065945;28;19921;-80
2022/04/05 01:38:58;;;;;;;;;;;;;;;2.63;87.75;99383.81;5059906;28;19928;-79
2022/04/05 01:41:23;;;;;;;;;;;;;;;2.66;87.94;99380.28;5072555;28;19917;-80
2022/04/05 01:43:49;;;;;;;;;;;;;;;2.65;89.65;99373.25;5070243;28;19927;-80
2022/04/05 01:46:14;;;;;;;;;;;;;;;2.69;90.31;99368.53;5071138;28;20446;-79
2022/04/05 01:48:39;;;;;;;;;;;;;;;2.70;90.07;99364.63;5078403;28;19923;-80
2022/04/05 01:51:05;;;;;;;;;;;;;;;2.73;91.51;99368.50;5092449;28;19920;-79
2022/04/05 01:53:31;;;;;;;;;;;;;;;2.69;91.25;99376.75;5054973;28;19930;-79
2022/04/05 01:55:56;;;;;;;;;;;;;;;2.73;90.35;99373.97;5071814;28;20014;-79
2022/04/05 01:58:21;;;;;;;;;;;;;;;2.71;89.97;99371.63;5071540;28;19963;-80
2022/04/05 02:00:49;;;;;;;;;;;;;;;2.70;88.30;99369.31;5053823;28;19927;-80
2022/04/05 02:03:14;;;;;;;;;;;;;;;2.69;87.52;99365.78;5070369;28;20023;-79
2022/04/05 02:05:40;;;;;;;;;;;;;;;2.71;87.52;99360.69;5069915;28;20000;-79
2022/04/05 02:08:05;;;;;;;;;;;;;;;2.73;87.11;99363.03;5083535;28;19959;-80
2022/04/05 02:10:31;;;;;;;;;;;;;;;2.72;87.22;99356.78;5082818;28;19932;-79
2022/04/05 02:12:56;;;;;;;;;;;;;;;2.73;87.19;99358.34;5047103;28;19928;-80
2022/04/05 02:15:35;;;;;;;;;;;;;;;2.72;87.45;99351.28;5058535;28;19926;-80
2022/04/05 02:18:04;;;;;;;;;;;;;;;2.69;86.97;99349.38;5089129;28;19949;-79
2022/04/05 02:20:31;;;;;;;;;;;;;;;2.67;87.13;99348.97;5071858;28;19938;-80
2022/04/05 02:22:57;;;;;;;;;;;;;;;2.59;87.99;99347.44;5091395;28;20028;-80
2022/04/05 02:25:31;;;;;;;;;;;;;;;2.53;88.52;99356.50;5072630;28;19924;-80
2022/04/05 02:27:58;;;;;;;;;;;;;;;2.47;88.85;99350.66;5053186;28;19924;-80
2022/04/05 02:30:30;;;;;;;;;;;;;;;2.50;88.40;99349.09;5053025;28;20489;-79
2022/04/05 02:32:57;;;;;;;;;;;;;;;2.49;88.36;99351.03;5053190;28;19927;-80
2022/04/05 02:35:24;;;;;;;;;;;;;;;2.54;88.76;99338.91;5063727;28;20420;-80
2022/04/05 02:37:50;;;;;;;;;;;;;;;2.48;88.71;99341.25;5073457;28;20104;-80
2022/04/05 02:40:18;;;;;;;;;;;;;;;2.48;89.00;99341.25;5054796;28;19970;-80
2022/04/05 02:42:45;;;;;;;;;;;;;;;2.45;89.00;99347.53;5053345;28;19943;-79
2022/04/05 02:45:13;;;;;;;;;;;;;;;2.43;89.14;99344.41;5059957;28;19920;-79
2022/04/05 02:47:40;;;;;;;;;;;;;;;2.43;88.51;99344.41;5056991;28;19929;-80
2022/04/05 02:50:07;;;;;;;;;;;;;;;2.26;90.52;99334.34;5054037;28;19989;-79
2022/04/05 02:52:33;;;;;;;;;;;;;;;2.32;89.67;99338.22;5050895;28;20373;-79
2022/04/05 02:55:02;;;;;;;;;;;;;;;2.31;90.78;99331.19;5053930;28;19943;-79
2022/04/05 02:57:29;;;;;;;;;;;;;;;2.33;90.06;99332.34;5032615;28;19986;-80
2022/04/05 02:59:57;;;;;;;;;;;;;;;2.40;90.42;99341.69;5072645;28;19920;-79
2022/04/05 03:02:24;;;;;;;;;;;;;;;2.45;89.93;99333.84;5068154;28;19924;-79
2022/04/05 03:04:51;;;;;;;;;;;;;;;2.50;89.88;99330.72;5063925;28;19931;-79
2022/04/05 03:07:18;;;;;;;;;;;;;;;2.52;89.50;99331.06;5069237;28;19973;-79
2022/04/05 03:09:43;;;;;;;;;;;;;;;2.53;89.47;99335.38;5069860;28;19925;-79
2022/04/05 03:12:11;;;;;;;;;;;;;;;2.54;89.66;99334.19;5054981;28;19924;-79
2022/04/05 03:14:40;;;;;;;;;;;;;;;2.51;89.28;99334.97;5038249;28;20284;-80
2022/04/05 03:17:07;;;;;;;;;;;;;;;2.42;90.40;99329.19;5095186;28;20003;-80
2022/04/05 03:19:34;;;;;;;;;;;;;;;2.42;89.82;99325.66;5084220;28;19925;-79
2022/04/05 03:22:05;;;;;;;;;;;;;;;2.42;90.29;99323.72;5036820;28;19975;-79
2022/04/05 03:24:31;;;;;;;;;;;;;;;2.44;91.48;99318.59;5054792;28;19924;-79
2022/04/05 03:26:57;;;;;;;;;;;;;;;2.47;91.28;99326.00;5072800;28;19927;-79
2022/04/05 03:29:22;;;;;;;;;;;;;;;2.43;89.95;99322.50;5056908;28;19920;-79
2022/04/05 03:31:48;;;;;;;;;;;;;;;2.44;89.76;99318.59;5073362;28;19920;-80
2022/04/05 03:34:14;;;;;;;;;;;;;;;2.42;90.90;99315.50;5093315;28;19916;-85
2022/04/05 03:36:41;;;;;;;;;;;;;;;2.44;90.48;99313.13;5074782;28;20308;-85
2022/04/05 03:39:07;;;;;;;;;;;;;;;2.44;91.42;99315.09;5048202;28;20028;-84
2022/04/05 03:41:32;;;;;;;;;;;;;;;2.42;90.54;99310.03;5076795;28;20722;-84
2022/04/05 03:43:58;;;;;;;;;;;;;;;2.31;91.02;99303.81;5085743;28;20386;-85
2022/04/05 03:46:30;;;;;;;;;;;;;;;2.21;91.67;99305.44;5072861;28;19932;-85
2022/04/05 03:48:55;;;;;;;;;;;;;;;2.18;90.90;99317.19;5059415;28;19920;-85
2022/04/05 03:51:22;;;;;;;;;;;;;;;2.14;91.67;99308.22;5076512;28;20384;-85
2022/04/05 03:53:54;;;;;;;;;;;;;;;2.07;93.00;99308.22;5049262;28;20443;-85
2022/04/05 03:56:21;;;;;;;;;;;;;;;2.04;92.44;99305.50;5076320;28;20380;-85
2022/04/05 03:58:48;;;;;;;;;;;;;;;2.02;92.72;99305.16;5072800;28;20819;-85
2022/04/05 04:01:15;;;;;;;;;;;;;;;1.96;94.61;99309.44;5038766;28;19916;-85
2022/04/05 04:03:40;;;;;;;;;;;;;;;1.94;93.74;99307.13;5053316;28;19921;-84
2022/04/05 04:06:06;;;;;;;;;;;;;;;1.85;95.97;99310.28;5056028;28;19920;-84
2022/04/05 04:08:31;;;;;;;;;;;;;;;1.81;97.33;99304.03;5073531;28;20440;-85
2022/04/05 04:10:57;;;;;;;;;;;;;;;1.83;97.06;99304.41;5073245;28;19926;-85
2022/04/05 04:13:25;;;;;;;;;;;;;;;1.83;97.28;99304.41;5056160;28;20511;-85
2022/04/05 04:15:53;;;;;;;;;;;;;;;1.80;96.73;99307.94;5055494;28;19924;-84
2022/04/05 04:18:20;;;;;;;;;;;;;;;1.79;97.50;99306.38;5054994;28;20027;-85
2022/04/05 04:20:49;;;;;;;;;;;;;;;1.74;97.79;99309.50;5056111;28;19924;-84
2022/04/05 04:23:16;;;;;;;;;;;;;;;1.70;97.93;99308.00;5054780;28;19923;-84
2022/04/05 04:25:45;;;;;;;;;;;;;;;1.65;97.24;99311.91;5055398;28;20293;-84
2022/04/05 04:28:11;;;;;;;;;;;;;;;1.59;96.01;99318.16;5055139;28;19956;-86
2022/04/05 04:30:37;;;;;;;;;;;;;;;1.57;97.42;99310.38;5078050;28;19960;-85
2022/04/05 04:33:03;;;;;;;;;;;;;;;1.48;99.48;99314.66;5084439;28;20288;-79
2022/04/05 04:35:28;;;;;;;;;;;;;;;1.45;98.57;99310.78;5073675;28;20019;-79
2022/04/05 04:37:54;;;;;;;;;;;;;;;1.44;99.40;99306.47;5054763;28;19943;-79
2022/04/05 04:40:20;;;;;;;;;;;;;;;1.42;100.00;99308.06;5054915;28;20103;-79
2022/04/05 04:42:45;;;;;;;;;;;;;;;1.45;100.00;99312.72;5073375;28;20006;-79
2022/04/05 04:45:11;;;;;;;;;;;;;;;1.51;100.00;99320.13;5071422;28;19931;-79
2022/04/05 04:47:36;;;;;;;;;;;;;;;1.57;100.00;99318.56;5055701;28;19931;-79
2022/04/05 04:50:02;;;;;;;;;;;;;;;1.61;100.00;99327.53;5066786;28;19965;-85
2022/04/05 04:52:27;;;;;;;;;;;;;;;1.61;100.00;99321.28;5066400;28;19928;-84
2022/04/05 04:54:52;;;;;;;;;;;;;;;1.63;100.00;99319.72;5058065;28;19976;-84
2022/04/05 04:57:18;;;;;;;;;;;;;;;1.71;100.00;99312.25;5050318;28;19948;-85
2022/04/05 04:59:43;;;;;;;;;;;;;;;1.80;100.00;99321.63;5044727;28;19917;-85
2022/04/05 05:02:09;;;;;;;;;;;;;;;1.89;100.00;99323.94;5065108;28;19920;-85
2022/04/05 05:04:34;;;;;;;;;;;;;;;1.98;100.00;99323.53;5084211;28;20015;-85
2022/04/05 05:07:00;;;;;;;;;;;;;;;2.05;100.00;99327.00;5080037;28;20081;-85
2022/04/05 05:09:25;;;;;;;;;;;;;;;2.15;100.00;99317.19;5088284;28;19924;-79
2022/04/05 05:11:51;;;;;;;;;;;;;;;2.22;100.00;99311.69;5064718;28;19923;-79
2022/04/05 05:14:16;;;;;;;;;;;;;;;2.33;100.00;99306.94;5072446;28;20138;-79
2022/04/05 05:16:41;;;;;;;;;;;;;;;2.45;100.00;99300.22;5084373;28;20342;-82
2022/04/05 05:19:07;;;;;;;;;;;;;;;2.52;100.00;99300.97;5082907;28;19920;-82
2022/04/05 05:21:32;;;;;;;;;;;;;;;2.60;100.00;99299.72;5083847;28;19924;-81
2022/04/05 05:23:57;;;;;;;;;;;;;;;2.71;100.00;99296.94;5080646;28;20008;-81
2022/04/05 05:26:23;;;;;;;;;;;;;;;2.86;100.00;99305.81;5053344;28;19920;-81
2022/04/05 05:28:48;;;;;;;;;;;;;;;2.94;100.00;99302.63;5070044;28;19967;-82
2022/04/05 05:31:14;;;;;;;;;;;;;;;3.08;100.00;99296.25;5081709;28;20391;-82
2022/04/05 05:33:39;;;;;;;;;;;;;;;3.19;100.00;99299.69;5072364;28;19916;-82
2022/04/05 05:36:04;;;;;;;;;;;;;;;3.36;100.00;99306.94;5053035;28;19944;-83
2022/04/05 05:38:30;;;;;;;;;;;;;;;3.51;98.75;99311.13;5074715;28;19970;-83
2022/04/05 05:40:55;;;;;;;;;;;;;;;3.61;97.49;99307.47;5091660;28;20634;-83
2022/04/05 05:43:21;;;;;;;;;;;;;;;3.62;96.63;99289.84;5083052;28;19931;-85
2022/04/05 05:45:47;;;;;;;;;;;;;;;3.86;96.04;99306.44;5073836;28;19920;-86
2022/04/05 05:48:12;;;;;;;;;;;;;;;4.02;94.93;99309.38;5101697;28;20334;-81
2022/04/05 05:50:37;;;;;;;;;;;;;;;4.16;94.22;99309.22;5087871;28;19916;-83
2022/04/05 05:53:03;;;;;;;;;;;;;;;4.32;93.76;99295.69;5090730;28;19928;-83
2022/04/05 05:55:28;;;;;;;;;;;;;;;4.49;93.11;99311.13;5071625;28;19931;-82
2022/04/05 05:57:54;;;;;;;;;;;;;;;4.57;92.72;99312.56;5073929;28;20388;-82
2022/04/05 06:00:23;;;;;;;;;;;;;;;4.66;91.49;99315.59;5073404;28;19967;-80
2022/04/05 06:02:54;;;;;;;;;;;;;;;4.84;91.26;99314.56;5072697;28;19920;-82
2022/04/05 06:05:19;;;;;;;;;;;;;;;5.02;90.35;99321.31;5091038;28;19967;-90
2022/04/05 06:07:45;;;;;;;;;;;;;;;5.11;88.93;99309.78;5091768;28;19990;-82
2022/04/05 06:10:11;;;;;;;;;;;;;;;5.28;88.98;99322.47;5089632;28;19920;-82
2022/04/05 06:12:40;;;;;;;;;;;;;;;5.44;88.66;99317.09;5072834;28;19920;-81
2022/04/05 06:15:08;;;;;;;;;;;;;;;5.68;87.42;99328.84;5094154;28;19922;-81
2022/04/05 06:17:33;;;;;;;;;;;;;;;5.80;86.05;99316.44;5101982;28;19924;-81
2022/04/05 06:19:58;;;;;;;;;;;;;;;5.81;86.42;99321.53;5091954;28;19920;-81
2022/04/05 06:22:24;;;;;;;;;;;;;;;6.04;85.62;99323.47;5072976;28;19920;-81
2022/04/05 06:24:49;;;;;;;;;;;;;;;6.20;84.97;99329.03;5091281;28;19920;-81
2022/04/05 06:27:15;;;;;;;;;;;;;;;6.42;83.08;99330.16;5091926;28;19920;-91
2022/04/05 06:29:40;;;;;;;;;;;;;;;6.62;82.47;99330.13;5082926;28;20408;-90
2022/04/05 06:32:06;;;;;;;;;;;;;;;6.87;81.80;99326.81;5083733;28;19926;-89
2022/04/05 06:34:31;;;;;;;;;;;;;;;7.02;80.02;99314.25;5088744;28;19923;-91
2022/04/05 06:36:58;;;;;;;;;;;;;;;7.21;79.67;99307.09;5076569;28;19920;-89
2022/04/05 06:39:24;;;;;;;;;;;;;;;7.30;77.68;99301.75;5087695;28;20685;-90
2022/04/05 06:41:49;;;;;;;;;;;;;;;7.23;77.85;99308.22;5089624;28;19956;-89
2022/04/05 06:44:14;;;;;;;;;;;;;;;6.98;78.35;99302.53;5075715;28;20270;-88
2022/04/05 06:46:40;;;;;;;;;;;;;;;6.99;79.57;99304.09;5088852;28;20422;-89
2022/04/05 06:49:05;;;;;;;;;;;;;;;6.83;79.72;99306.84;5088191;28;19963;-89
2022/04/05 06:51:31;;;;;;;;;;;;;;;6.89;79.46;99319.66;5075731;28;19924;-89
2022/04/05 06:53:57;;;;;;;;;;;;;;;6.96;79.34;99304.91;5071834;28;19927;-88
2022/04/05 06:56:26;;;;;;;;;;;;;;;7.07;79.31;99299.94;5089294;28;19920;-88
2022/04/05 06:58:52;;;;;;;;;;;;;;;7.18;78.41;99299.69;5089699;28;20360;-90
2022/04/05 07:01:17;;;;;;;;;;;;;;;7.34;78.11;99308.72;5074777;28;19963;-88
2022/04/05 07:03:43;;;;;;;;;;;;;;;7.53;77.51;99306.28;5071158;28;19927;-89
2022/04/05 07:06:08;;;;;;;;;;;;;;;7.68;76.46;99304.72;5053165;28;19924;-88
2022/04/05 07:08:34;;;;;;;;;;;;;;;7.89;75.88;99304.09;5071047;28;19925;-88
2022/04/05 07:10:59;;;;;;;;;;;;;;;8.23;74.60;99306.31;5079509;28;20431;-88
2022/04/05 07:13:24;;;;;;;;;;;;;;;8.60;73.96;99307.63;5091063;28;20215;-89
2022/04/05 07:15:50;;;;;;;;;;;;;;;8.88;70.87;99301.22;5091264;28;19924;-90
2022/04/05 07:18:15;;;;;;;;;;;;;;;9.08;71.14;99285.16;5071575;28;19916;-87
2022/04/05 07:20:40;;;;;;;;;;;;;;;9.42;68.95;99286.44;5107907;28;19928;-88
2022/04/05 07:23:06;;;;;;;;;;;;;;;9.58;68.75;99286.25;5111189;28;20002;-81
2022/04/05 07:25:33;;;;;;;;;;;;;;;9.69;67.78;99273.59;5093172;28;19923;-80
2022/04/05 07:28:01;;;;;;;;;;;;;;;9.86;65.15;99285.25;5093455;28;19915;-80
2022/04/05 07:30:26;;;;;;;;;;;;;;;9.80;66.11;99282.28;5095069;28;20360;-79
2022/04/05 07:32:51;;;;;;;;;;;;;;;9.89;64.30;99281.59;5090511;28;19920;-79
2022/04/05 07:35:20;;;;;;;;;;;;;;;10.14;64.15;99284.22;5090197;28;19920;-79
2022/04/05 07:37:45;;;;;;;;;;;;;;;10.30;62.43;99258.34;5091190;28;19920;-79
2022/04/05 07:40:11;;;;;;;;;;;;;;;10.43;62.83;99272.09;5090749;28;20011;-87
2022/04/05 07:42:37;;;;;;;;;;;;;;;10.69;63.09;99279.00;5073060;28;19928;-87
2022/04/05 07:45:03;;;;;;;;;;;;;;;10.83;61.33;99281.22;5090975;28;19916;-88
2022/04/05 07:47:28;;;;;;;;;;;;;;;11.07;61.86;99264.81;5089322;28;19920;-86
2022/04/05 07:49:54;;;;;;;;;;;;;;;11.50;60.65;99266.56;5090956;28;19922;-87
2022/04/05 07:52:19;;;;;;;;;;;;;;;11.69;59.69;99262.53;5090624;28;20026;-87
2022/04/05 07:54:45;;;;;;;;;;;;;;;11.84;58.71;99271.09;5090611;28;20031;-87
2022/04/05 07:57:10;;;;;;;;;;;;;;;11.56;58.18;99273.84;5090669;28;19928;-87
2022/04/05 07:59:36;;;;;;;;;;;;;;;11.21;59.38;99270.53;5090802;28;19928;-80
2022/04/05 08:02:01;;;;;;;;;;;;;;;11.12;60.44;99291.97;5093268;28;21987;-80
2022/04/05 08:04:27;;;;;;;;;;;;;;;11.12;60.21;99281.59;5094437;28;19943;-79
2022/04/05 08:06:52;;;;;;;;;;;;;;;11.08;60.44;99294.09;5094386;28;19981;-79
2022/04/05 08:09:18;;;;;;;;;;;;;;;11.06;60.37;99291.78;5094216;28;19927;-80
2022/04/05 08:11:43;;;;;;;;;;;;;;;11.08;60.35;99278.19;5093989;28;20014;-79
2022/04/05 08:14:09;;;;;;;;;;;;;;;11.11;59.00;99282.06;5094282;28;19973;-79
2022/04/05 08:16:34;;;;;;;;;;;;;;;11.25;58.10;99287.03;5094439;28;19926;-80
2022/04/05 08:19:00;;;;;;;;;;;;;;;11.43;57.89;99280.75;5094136;28;19924;-79
2022/04/05 08:21:25;;;;;;;;;;;;;;;11.56;56.79;99290.50;5075848;28;20377;-89
2022/04/05 08:23:52;;;;;;;;;;;;;;;11.69;55.59;99277.22;5097762;28;19955;-88
2022/04/05 08:26:18;;;;;;;;;;;;;;;11.72;55.53;99280.34;5097781;28;19989;-88
2022/04/05 08:28:43;;;;;;;;;;;;;;;11.80;55.11;99271.25;5096261;28;19927;-88
2022/04/05 08:31:08;;;;;;;;;;;;;;;12.17;55.87;99285.09;5106059;28;19921;-89
2022/04/05 08:33:34;;;;;;;;;;;;;;;12.53;54.99;99277.44;5113030;28;19963;-90
2022/04/05 08:35:59;;;;;;;;;;;;;;;12.78;53.74;99276.25;5096103;28;19962;-89
2022/04/05 08:38:26;;;;;;;;;;;;;;;12.88;51.90;99282.56;5093414;28;19920;-79
2022/04/05 08:40:51;;;;;;;;;;;;;;;12.95;51.30;99280.19;5093324;28;20388;-79
2022/04/05 08:43:17;;;;;;;;;;;;;;;12.89;50.10;99282.09;5074697;28;19927;-79
2022/04/05 08:45:42;;;;;;;;;;;;;;;13.01;50.13;99278.31;5092920;28;19931;-79
2022/04/05 08:48:09;;;;;;;;;;;;;;;13.05;51.13;99273.34;5092841;28;20396;-79
2022/04/05 08:50:35;;;;;;;;;;;;;;;13.04;49.34;99276.59;5074583;28;19916;-79
2022/04/05 08:53:00;;;;;;;;;;;;;;;13.19;51.03;99282.25;5092046;28;19924;-79
2022/04/05 08:55:26;;;;;;;;;;;;;;;13.49;49.60;99289.50;5091787;28;19968;-79
2022/04/05 08:57:52;;;;;;;;;;;;;;;13.49;49.18;99286.72;5091410;28;20447;-88
2022/04/05 09:00:22;;;;;;;;;;;;;;;13.80;48.59;99277.97;5091374;28;20014;-89
2022/04/05 09:02:55;;;;;;;;;;;;;;;13.88;46.79;99288.28;5074430;28;19977;-88
2022/04/05 09:05:33;;;;;;;;;;;;;;;14.08;47.11;99284.84;5091516;28;20381;-88
2022/04/05 09:08:17;;;;;;;;;;;;;;;13.89;46.80;99289.06;5092130;28;19920;-88
2022/04/05 09:10:43;;;;;;;;;;;;;;;13.98;47.66;99281.38;5092405;28;19920;-89
2022/04/05 09:13:09;;;;;;;;;;;;;;;14.08;45.82;99295.22;5092911;28;19923;-88
2022/04/05 09:15:35;;;;;;;;;;;;;;;13.88;46.71;99288.28;5092807;28;19923;-88
2022/04/05 09:18:01;;;;;;;;;;;;;;;14.16;47.54;99285.22;5093289;28;19920;-88
2022/04/05 09:20:27;;;;;;;;;;;;;;;14.47;45.77;99293.97;5092587;28;20281;-88
2022/04/05 09:22:54;;;;;;;;;;;;;;;14.45;45.61;99286.06;5074569;28;19924;-88
2022/04/05 09:25:19;;;;;;;;;;;;;;;14.63;45.33;99289.91;5092633;28;19982;-89
2022/04/05 09:27:51;;;;;;;;;;;;;;;14.64;44.12;99288.66;5092983;28;19954;-88
2022/04/05 09:30:18;;;;;;;;;;;;;;;14.32;45.06;99281.97;5091242;28;19920;-88
2022/04/05 09:32:47;;;;;;;;;;;;;;;14.41;45.17;99279.13;5092552;28;19931;-88
2022/04/05 09:35:15;;;;;;;;;;;;;;;14.46;45.44;99281.25;5083986;28;20004;-88
2022/04/05 09:37:40;;;;;;;;;;;;;;;14.45;46.72;99266.53;5092775;28;19927;-88
2022/04/05 09:40:32;;;;;;;;;;;;;;;14.49;46.12;99271.91;5074510;28;19920;-88
2022/04/05 09:43:08;;;;;;;;;;;;;;;14.57;46.05;99278.63;5091046;28;19920;-87
2022/04/05 09:45:53;;;;;;;;;;;;;;;14.60;45.45;99279.72;5065160;28;20298;-88
2022/04/05 09:48:23;;;;;;;;;;;;;;;14.43;46.27;99271.84;5072091;28;20343;-88
2022/04/05 09:51:01;;;;;;;;;;;;;;;14.42;45.68;99275.88;5054255;28;19916;-88
2022/04/05 09:53:30;;;;;;;;;;;;;;;14.30;44.71;99267.75;5072144;28;19920;-88
2022/04/05 09:56:02;;;;;;;;;;;;;;;14.11;45.45;99272.75;5072071;28;20304;-87
2022/04/05 09:58:27;;;;;;;;;;;;;;;14.14;44.40;99277.38;5074353;28;19973;-88
2022/04/05 10:01:05;;;;;;;;;;;;;;;14.19;43.83;99273.13;5091411;28;20007;-88
2022/04/05 10:03:30;;;;;;;;;;;;;;;14.13;44.06;99275.81;5091812;28;19920;-88
2022/04/05 10:05:55;;;;;;;;;;;;;;;13.95;43.93;99279.53;5073958;28;20061;-87
2022/04/05 10:08:21;;;;;;;;;;;;;;;14.01;45.06;99280.41;5092141;28;20440;-88
2022/04/05 10:10:46;;;;;;;;;;;;;;;14.26;43.79;99267.19;5091987;28;20010;-87
2022/04/05 10:13:12;;;;;;;;;;;;;;;14.60;42.57;99272.09;5092218;28;20436;-87
2022/04/05 10:15:38;;;;;;;;;;;;;;;14.81;42.63;99267.34;5073344;28;20001;-87
2022/04/05 10:18:06;;;;;;;;;;;;;;;14.73;42.76;99261.38;5092260;28;19920;-89
2022/04/05 10:20:32;;;;;;;;;;;;;;;14.94;42.64;99265.78;5074145;28;19981;-88
2022/04/05 10:23:00;;;;;;;;;;;;;;;15.13;42.06;99265.53;5091360;28;19928;-88
2022/04/05 10:25:25;;;;;;;;;;;;;;;15.25;42.82;99258.81;5073232;28;19920;-88
2022/04/05 10:27:51;;;;;;;;;;;;;;;15.42;41.95;99257.03;5091833;28;19926;-89
2022/04/05 10:30:24;;;;;;;;;;;;;;;15.81;41.06;99252.69;5091404;28;20309;-88
2022/04/05 10:32:59;;;;;;;;;;;;;;;16.04;41.22;99248.13;5073647;28;19943;-79
2022/04/05 10:35:25;;;;;;;;;;;;;;;16.18;41.48;99252.06;5091493;28;20324;-79
2022/04/05 10:37:53;;;;;;;;;;;;;;;16.29;41.58;99243.78;5091549;28;19973;-79
2022/04/05 10:40:20;;;;;;;;;;;;;;;16.27;39.17;99251.91;5091215;28;19916;-79
2022/04/05 10:42:47;;;;;;;;;;;;;;;16.29;40.62;99235.41;5091438;28;19920;-79
2022/04/05 10:45:15;;;;;;;;;;;;;;;16.77;41.29;99253.13;5091420;28;19920;-79
2022/04/05 10:47:59;;;;;;;;;;;;;;;16.91;39.03;99247.84;5091656;28;19920;-80
2022/04/05 10:50:25;;;;;;;;;;;;;;;16.45;38.71;99243.16;5091877;28;20330;-79
2022/04/05 10:53:17;;;;;;;;;;;;;;;16.34;41.00;99248.66;5102004;28;19923;-79
2022/04/05 10:56:01;;;;;;;;;;;;;;;16.49;39.73;99240.13;5056068;28;20355;-79
2022/04/05 10:58:26;;;;;;;;;;;;;;;16.56;38.76;99242.47;5076632;28;20393;-78
2022/04/05 11:00:51;;;;;;;;;;;;;;;16.33;39.19;99241.53;5081165;28;20010;-78
2022/04/05 11:03:17;;;;;;;;;;;;;;;16.73;38.86;99235.78;5058491;28;20011;-79
2022/04/05 11:05:43;;;;;;;;;;;;;;;17.06;37.83;99240.06;5069230;28;19920;-78
2022/04/05 11:08:12;;;;;;;;;;;;;;;17.09;37.12;99230.66;5069241;28;20451;-79
2022/04/05 11:10:41;;;;;;;;;;;;;;;17.08;36.81;99231.91;5072325;28;20448;-79
2022/04/05 11:13:06;;;;;;;;;;;;;;;17.44;38.07;99235.91;5069345;28;19920;-79
2022/04/05 11:15:44;;;;;;;;;;;;;;;17.56;35.13;99238.25;5051431;28;19921;-78
2022/04/05 11:18:09;;;;;;;;;;;;;;;17.26;36.54;99237.13;5052823;28;19921;-78
2022/04/05 11:20:35;;;;;;;;;;;;;;;16.64;36.58;99238.75;5067332;28;20028;-79
2022/04/05 11:23:02;;;;;;;;;;;;;;;16.62;36.90;99235.69;5055217;28;19921;-79
2022/04/05 11:25:30;;;;;;;;;;;;;;;16.69;37.54;99234.47;5068862;28;19977;-79
2022/04/05 11:28:02;;;;;;;;;;;;;;;16.74;37.18;99234.50;5064174;28;19968;-79
2022/04/05 11:30:28;;;;;;;;;;;;;;;16.36;36.83;99226.53;5030480;28;20370;-89
2022/04/05 11:33:06;;;;;;;;;;;;;;;16.53;36.75;99224.66;5069144;28;19927;-89
2022/04/05 11:35:42;;;;;;;;;;;;;;;16.66;37.13;99222.22;5069126;28;20644;-89
2022/04/05 11:38:12;;;;;;;;;;;;;;;16.64;36.73;99221.97;5075127;28;19920;-89
2022/04/05 11:40:41;;;;;;;;;;;;;;;16.61;35.74;99222.97;5072546;28;19920;-89
2022/04/05 11:43:08;;;;;;;;;;;;;;;16.57;35.50;99227.25;5055562;28;19982;-89
2022/04/05 11:45:33;;;;;;;;;;;;;;;16.32;35.95;99214.81;5054999;28;19924;-89
2022/04/05 11:47:59;;;;;;;;;;;;;;;16.48;37.91;99214.19;5073250;28;19921;-89
2022/04/05 11:50:25;;;;;;;;;;;;;;;16.86;35.11;99206.59;5072360;28;20382;-89
2022/04/05 11:52:50;;;;;;;;;;;;;;;17.38;33.90;99212.72;5072740;28;20011;-85
2022/04/05 11:58:04;;;;;;;;;;;;;;;18.16;33.63;99203.22;5053210;28;20397;-87
2022/04/05 12:00:33;;;;;;;;;;;;;;;18.01;34.87;99210.34;5072568;28;20034;-89
2022/04/05 12:03:06;;;;;;;;;;;;;;;17.98;34.71;99192.50;5076365;28;19927;-88
2022/04/05 12:05:41;;;;;;;;;;;;;;;17.88;34.63;99205.22;5067820;28;20285;-87
2022/04/05 12:08:09;;;;;;;;;;;;;;;17.30;34.71;99206.81;5073641;28;19921;-87
2022/04/05 12:10:35;;;;;;;;;;;;;;;17.06;34.75;99204.41;5057426;28;19924;-88
2022/04/05 12:13:00;;;;;;;;;;;;;;;17.34;35.82;99198.16;5056173;28;19982;-88
2022/04/05 12:15:25;;;;;;;;;;;;;;;17.65;33.68;99198.81;5073520;28;20007;-88
2022/04/05 12:17:51;;;;;;;;;;;;;;;17.79;34.60;99193.50;5056983;28;20148;-87
2022/04/05 12:20:17;;;;;;;;;;;;;;;18.03;33.40;99185.38;5092384;28;19991;-87
2022/04/05 12:22:43;;;;;;;;;;;;;;;18.48;33.96;99191.78;5081194;28;19921;-89
2022/04/05 12:25:08;;;;;;;;;;;;;;;18.43;32.39;99187.69;5075373;28;19958;-90
2022/04/05 12:27:33;;;;;;;;;;;;;;;18.22;33.07;99192.03;5061247;28;19970;-79
2022/04/05 12:30:01;;;;;;;;;;;;;;;18.08;32.95;99187.41;5059077;28;19963;-79
2022/04/05 12:32:33;;;;;;;;;;;;;;;17.78;33.61;99189.16;5085399;28;20438;-79
2022/04/05 12:34:58;;;;;;;;;;;;;;;17.33;33.14;99191.78;5078842;28;19951;-79
2022/04/05 12:37:23;;;;;;;;;;;;;;;17.46;34.34;99194.13;5063750;28;19956;-80
2022/04/05 12:39:54;;;;;;;;;;;;;;;17.56;34.35;99181.41;5072941;28;19979;-80
2022/04/05 12:42:20;;;;;;;;;;;;;;;17.83;33.65;99182.78;5072417;28;19924;-80
2022/04/05 12:44:47;;;;;;;;;;;;;;;18.00;33.43;99177.94;5071709;28;19917;-80
2022/04/05 12:47:16;;;;;;;;;;;;;;;17.82;33.95;99176.41;5081400;28;19987;-89
2022/04/05 12:49:42;;;;;;;;;;;;;;;17.78;34.06;99183.53;5084121;28;19955;-90
2022/04/05 12:52:21;;;;;;;;;;;;;;;17.75;33.51;99176.91;5093154;28;19921;-88
2022/04/05 12:54:49;;;;;;;;;;;;;;;17.54;33.81;99178.34;5087236;28;19956;-89